Time;durP1;ratioP1;P1;durP2;ratioP2;P2;SDS_P1;SDS_P2;PMS_P1;PMS_P2;Temp;Humidity;BMP_temperature;BMP_pressure;BME280_temperature;BME280_humidity;BME280_pressure;Samples;Min_cycle;Max_cycle;Signal;HPM_P1;HPM_P2
2023/03/18 00:00:46;;;;;;;1.60;0.90;;;;;;;;;;5028987;28;20025;-67
2023/03/18 00:03:13;;;;;;;1.38;1.13;;;;;;;;;;5029254;28;20083;-67
2023/03/18 00:05:40;;;;;;;1.83;1.13;;;;;;;;;;5011577;28;20025;-68
2023/03/18 00:08:08;;;;;;;0.85;0.65;;;;;;;;;;5030299;28;20025;-66
2023/03/18 00:10:35;;;;;;;2.17;0.95;;;;;;;;;;5033851;28;20060;-68
2023/03/18 00:13:03;;;;;;;1.40;1.00;;;;;;;;;;5034610;28;20021;-67
2023/03/18 00:15:30;;;;;;;1.90;1.10;;;;;;;;;;5034649;28;20026;-67
2023/03/18 00:17:58;;;;;;;1.67;1.13;;;;;;;;;;5034224;28;20033;-68
2023/03/18 00:20:37;;;;;;;1.75;1.10;;;;;;;;;;5033219;28;20022;-67
2023/03/18 00:23:04;;;;;;;1.25;0.93;;;;;;;;;;5028071;28;20029;-68
2023/03/18 00:25:31;;;;;;;2.05;1.45;;;;;;;;;;5029029;28;20186;-68
2023/03/18 00:27:58;;;;;;;1.75;1.20;;;;;;;;;;5028969;28;20056;-68
2023/03/18 00:30:25;;;;;;;3.25;1.35;;;;;;;;;;5029716;28;20029;-66
2023/03/18 00:32:51;;;;;;;5.75;1.60;;;;;;;;;;5033718;28;20532;-68
2023/03/18 00:35:18;;;;;;;2.78;1.27;;;;;;;;;;5033902;28;20358;-66
2023/03/18 00:37:47;;;;;;;3.33;2.03;;;;;;;;;;5033873;28;20033;-67
2023/03/18 00:40:19;;;;;;;2.47;1.63;;;;;;;;;;5033681;28;20029;-68
2023/03/18 00:42:56;;;;;;;2.45;1.67;;;;;;;;;;5032540;28;20064;-68
2023/03/18 00:45:23;;;;;;;3.15;1.75;;;;;;;;;;5027927;28;20179;-66
2023/03/18 00:47:50;;;;;;;3.75;1.08;;;;;;;;;;5028294;28;20532;-68
2023/03/18 00:50:18;;;;;;;2.00;0.88;;;;;;;;;;5028194;28;20072;-68
2023/03/18 00:52:44;;;;;;;2.13;1.47;;;;;;;;;;5029039;28;20029;-67
2023/03/18 00:55:11;;;;;;;2.33;1.40;;;;;;;;;;5032599;28;20025;-69
2023/03/18 00:57:38;;;;;;;2.83;1.77;;;;;;;;;;5032851;28;20054;-68
2023/03/18 01:00:08;;;;;;;2.53;1.33;;;;;;;;;;5016148;28;20486;-68
2023/03/18 01:02:35;;;;;;;3.37;1.60;;;;;;;;;;5016246;28;20364;-67
2023/03/18 01:05:02;;;;;;;1.90;1.43;;;;;;;;;;5032802;28;20098;-68
2023/03/18 01:07:29;;;;;;;5.83;1.77;;;;;;;;;;5028326;28;20021;-68
2023/03/18 01:09:56;;;;;;;1.50;1.27;;;;;;;;;;5028019;28;20029;-68
2023/03/18 01:12:24;;;;;;;2.10;1.43;;;;;;;;;;5027594;28;20075;-68
2023/03/18 01:14:51;;;;;;;1.97;1.30;;;;;;;;;;5028307;28;20029;-69
2023/03/18 01:17:18;;;;;;;2.00;1.30;;;;;;;;;;5033369;28;20029;-68
2023/03/18 01:19:44;;;;;;;1.97;1.50;;;;;;;;;;5033363;28;20160;-67
2023/03/18 01:22:11;;;;;;;2.20;1.40;;;;;;;;;;5033404;28;20017;-67
2023/03/18 01:24:40;;;;;;;2.70;1.77;;;;;;;;;;5033147;28;20025;-67
2023/03/18 01:27:07;;;;;;;3.23;1.83;;;;;;;;;;5032965;28;20103;-66
2023/03/18 01:29:35;;;;;;;4.10;2.27;;;;;;;;;;5027454;28;20029;-67
2023/03/18 01:32:01;;;;;;;15.40;1.63;;;;;;;;;;5027644;28;20049;-68
2023/03/18 01:34:29;;;;;;;2.17;1.47;;;;;;;;;;5008924;28;20084;-68
2023/03/18 01:36:56;;;;;;;2.57;1.80;;;;;;;;;;5027787;28;20384;-68
2023/03/18 01:39:23;;;;;;;1.67;1.20;;;;;;;;;;5032391;28;20053;-67
2023/03/18 01:41:50;;;;;;;2.00;1.73;;;;;;;;;;5032598;28;20396;-66
2023/03/18 01:44:21;;;;;;;2.53;1.53;;;;;;;;;;5032937;28;20030;-67
2023/03/18 01:46:49;;;;;;;3.90;2.23;;;;;;;;;;5032759;28;20113;-67
2023/03/18 01:49:17;;;;;;;3.13;1.70;;;;;;;;;;5032846;28;20424;-66
2023/03/18 01:52:04;;;;;;;7.47;2.07;;;;;;;;;;5027660;28;20026;-67
2023/03/18 01:54:33;;;;;;;2.37;1.40;;;;;;;;;;5026987;28;20554;-67
2023/03/18 01:57:00;;;;;;;2.30;1.60;;;;;;;;;;5027481;28;20041;-67
2023/03/18 01:59:28;;;;;;;3.43;2.10;;;;;;;;;;5026995;28;20431;-67
2023/03/18 02:01:57;;;;;;;2.90;1.87;;;;;;;;;;5032382;28;20384;-67
2023/03/18 02:04:27;;;;;;;3.30;2.10;;;;;;;;;;5032557;28;20018;-66
2023/03/18 02:06:54;;;;;;;3.17;1.83;;;;;;;;;;5032569;28;20101;-66
2023/03/18 02:09:21;;;;;;;4.10;2.03;;;;;;;;;;5032397;28;20423;-66
2023/03/18 02:11:50;;;;;;;1.90;1.40;;;;;;;;;;5032484;28;20040;-67
2023/03/18 02:14:19;;;;;;;2.80;1.33;;;;;;;;;;5027125;28;20028;-67
2023/03/18 02:16:52;;;;;;;2.47;1.43;;;;;;;;;;5026996;28;20546;-67
2023/03/18 02:19:38;;;;;;;5.53;2.57;;;;;;;;;;5026178;28;20053;-67
2023/03/18 02:22:14;;;;;;;6.80;1.97;;;;;;;;;;5024180;28;20060;-67
2023/03/18 02:24:43;;;;;;;2.67;1.87;;;;;;;;;;5031838;28;20388;-67
2023/03/18 02:27:39;;;;;;;2.23;1.60;;;;;;;;;;5032529;28;20025;-66
2023/03/18 02:30:26;;;;;;;5.97;2.23;;;;;;;;;;5019572;28;20049;-66
2023/03/18 02:32:55;;;;;;;2.73;1.60;;;;;;;;;;5031957;28;20163;-67
2023/03/18 02:35:22;;;;;;;1.97;1.47;;;;;;;;;;5029483;28;20072;-67
2023/03/18 02:37:48;;;;;;;2.43;1.60;;;;;;;;;;5026872;28;20025;-67
2023/03/18 02:40:17;;;;;;;5.40;2.40;;;;;;;;;;5026842;28;20029;-67
2023/03/18 02:42:44;;;;;;;5.10;2.17;;;;;;;;;;5027004;28;20033;-67
2023/03/18 02:45:18;;;;;;;2.97;2.13;;;;;;;;;;5030464;28;20053;-66
2023/03/18 02:47:45;;;;;;;1.73;1.33;;;;;;;;;;5036078;28;20438;-67
2023/03/18 02:50:11;;;;;;;4.83;2.13;;;;;;;;;;5036224;28;20101;-66
2023/03/18 02:52:38;;;;;;;3.77;2.07;;;;;;;;;;5036120;28;20409;-67
2023/03/18 02:55:06;;;;;;;8.87;2.30;;;;;;;;;;5035901;28;20472;-66
2023/03/18 02:57:32;;;;;;;2.33;1.63;;;;;;;;;;5033919;28;20060;-66
2023/03/18 02:59:59;;;;;;;2.87;1.83;;;;;;;;;;5012712;28;20029;-66
2023/03/18 03:02:26;;;;;;;3.03;2.00;;;;;;;;;;5030392;28;20032;-66
2023/03/18 03:04:53;;;;;;;4.57;2.03;;;;;;;;;;5030757;28;20052;-67
2023/03/18 03:07:19;;;;;;;5.60;2.40;;;;;;;;;;5032070;28;20633;-66
2023/03/18 03:09:46;;;;;;;3.40;2.10;;;;;;;;;;5035896;28;20017;-68
2023/03/18 03:12:13;;;;;;;6.57;2.53;;;;;;;;;;5035768;28;20058;-66
2023/03/18 03:14:40;;;;;;;4.00;2.17;;;;;;;;;;5035542;28;20034;-66
2023/03/18 03:17:08;;;;;;;1.53;1.30;;;;;;;;;;5035546;28;20061;-66
2023/03/18 03:19:35;;;;;;;3.27;1.83;;;;;;;;;;5033779;28;20048;-66
2023/03/18 03:22:02;;;;;;;1.90;1.50;;;;;;;;;;5029862;28;20049;-65
2023/03/18 03:24:29;;;;;;;3.33;2.17;;;;;;;;;;5030340;28;20044;-66
2023/03/18 03:26:56;;;;;;;3.57;2.23;;;;;;;;;;5030369;28;20033;-67
2023/03/18 03:29:23;;;;;;;2.13;1.40;;;;;;;;;;5030782;28;20038;-67
2023/03/18 03:31:50;;;;;;;3.20;2.00;;;;;;;;;;5035436;28;20029;-67
2023/03/18 03:34:17;;;;;;;2.70;1.90;;;;;;;;;;5035079;28;20029;-67
2023/03/18 03:36:43;;;;;;;2.40;1.47;;;;;;;;;;5035304;28;20094;-67
2023/03/18 03:39:11;;;;;;;3.87;2.10;;;;;;;;;;5017691;28;20405;-67
2023/03/18 03:41:38;;;;;;;9.47;1.33;;;;;;;;;;5034470;28;20017;-67
2023/03/18 03:44:05;;;;;;;2.77;1.83;;;;;;;;;;5029944;28;20059;-67
2023/03/18 03:46:31;;;;;;;3.00;1.67;;;;;;;;;;5029829;28;21772;-67
2023/03/18 03:48:58;;;;;;;4.43;2.20;;;;;;;;;;5029571;28;20061;-66
2023/03/18 03:51:25;;;;;;;1.97;1.33;;;;;;;;;;5029742;28;20029;-67
2023/03/18 03:53:52;;;;;;;2.20;1.60;;;;;;;;;;5034262;28;20034;-65
2023/03/18 03:56:18;;;;;;;1.73;1.30;;;;;;;;;;5033552;28;20029;-67
2023/03/18 03:58:45;;;;;;;1.73;1.23;;;;;;;;;;5035136;28;20511;-67
2023/03/18 04:01:12;;;;;;;2.70;1.60;;;;;;;;;;5034901;28;20032;-67
2023/03/18 04:03:39;;;;;;;7.70;2.23;;;;;;;;;;5034695;28;20096;-67
2023/03/18 04:06:06;;;;;;;2.03;1.17;;;;;;;;;;5028540;28;20152;-67
2023/03/18 04:08:32;;;;;;;1.07;0.90;;;;;;;;;;5029526;28;20021;-67
2023/03/18 04:10:59;;;;;;;1.10;0.83;;;;;;;;;;5029535;28;20392;-67
2023/03/18 04:13:26;;;;;;;1.87;1.47;;;;;;;;;;5028990;28;20026;-67
2023/03/18 04:15:53;;;;;;;1.43;1.20;;;;;;;;;;5033853;28;20472;-67
2023/03/18 04:18:20;;;;;;;6.40;2.30;;;;;;;;;;5034265;28;20120;-67
2023/03/18 04:20:47;;;;;;;2.97;1.73;;;;;;;;;;5034496;28;20025;-67
2023/03/18 04:23:14;;;;;;;1.37;1.17;;;;;;;;;;5034609;28;20068;-66
2023/03/18 04:25:41;;;;;;;2.13;1.57;;;;;;;;;;5034496;28;20070;-67
2023/03/18 04:28:08;;;;;;;4.57;1.80;;;;;;;;;;5029550;28;20026;-67
2023/03/18 04:30:35;;;;;;;3.50;1.73;;;;;;;;;;5028686;28;20113;-67
2023/03/18 04:33:02;;;;;;;1.73;1.03;;;;;;;;;;5028895;28;20109;-67
2023/03/18 04:35:29;;;;;;;4.20;1.57;;;;;;;;;;5029098;28;20549;-67
2023/03/18 04:37:55;;;;;;;3.77;1.23;;;;;;;;;;5032594;28;20040;-67
2023/03/18 04:40:22;;;;;;;2.70;1.83;;;;;;;;;;5034351;28;20018;-67
2023/03/18 04:42:49;;;;;;;1.70;1.00;;;;;;;;;;5034165;28;20096;-67
2023/03/18 04:45:16;;;;;;;1.30;1.00;;;;;;;;;;5033685;28;20083;-67
2023/03/18 04:47:44;;;;;;;3.83;1.73;;;;;;;;;;5033734;28;20096;-67
2023/03/18 04:50:11;;;;;;;3.27;1.73;;;;;;;;;;5030039;28;20018;-67
2023/03/18 04:52:39;;;;;;;3.77;1.70;;;;;;;;;;5028704;28;20087;-66
2023/03/18 04:55:06;;;;;;;3.80;1.77;;;;;;;;;;5028397;28;20029;-66
2023/03/18 04:57:34;;;;;;;2.60;1.63;;;;;;;;;;5028455;28;20037;-66
2023/03/18 05:00:03;;;;;;;1.80;1.20;;;;;;;;;;5031478;28;20030;-67
2023/03/18 05:02:30;;;;;;;2.53;1.57;;;;;;;;;;5033486;28;20056;-66
2023/03/18 05:04:56;;;;;;;1.47;1.10;;;;;;;;;;5033265;28;20026;-66
2023/03/18 05:07:23;;;;;;;4.77;2.27;;;;;;;;;;5033575;28;20020;-66
2023/03/18 05:09:50;;;;;;;2.70;1.40;;;;;;;;;;5033612;28;20025;-66
2023/03/18 05:12:17;;;;;;;2.00;1.30;;;;;;;;;;5029860;28;20029;-66
2023/03/18 05:14:44;;;;;;;1.53;1.00;;;;;;;;;;5010257;28;20026;-66
2023/03/18 05:17:14;;;;;;;2.93;2.00;;;;;;;;;;5028031;28;20034;-65
2023/03/18 05:19:42;;;;;;;1.00;0.90;;;;;;;;;;5028194;28;20029;-66
2023/03/18 05:22:09;;;;;;;5.27;1.87;;;;;;;;;;5030445;28;20104;-66
2023/03/18 05:24:35;;;;;;;3.47;1.37;;;;;;;;;;5015679;28;20048;-66
2023/03/18 05:27:02;;;;;;;1.10;0.90;;;;;;;;;;5033098;28;20021;-66
2023/03/18 05:29:29;;;;;;;2.83;2.13;;;;;;;;;;5033116;28;20104;-66
2023/03/18 05:31:55;;;;;;;3.17;1.93;;;;;;;;;;5033129;28;20017;-66
2023/03/18 05:34:22;;;;;;;3.10;1.83;;;;;;;;;;5030131;28;20112;-66
2023/03/18 05:36:49;;;;;;;3.47;2.03;;;;;;;;;;5027937;28;20029;-65
2023/03/18 05:39:16;;;;;;;3.47;2.03;;;;;;;;;;5027393;28;20025;-66
2023/03/18 05:41:43;;;;;;;1.70;1.40;;;;;;;;;;5027358;28;20103;-66
2023/03/18 05:44:10;;;;;;;2.03;1.60;;;;;;;;;;5029858;28;20024;-67
2023/03/18 05:46:37;;;;;;;1.80;1.37;;;;;;;;;;5032862;28;20468;-66
2023/03/18 05:49:03;;;;;;;3.67;1.73;;;;;;;;;;5032859;28;20451;-66
2023/03/18 05:51:31;;;;;;;2.13;1.70;;;;;;;;;;5032559;28;20040;-67
2023/03/18 05:53:57;;;;;;;1.43;1.30;;;;;;;;;;5032830;28;20021;-67
2023/03/18 05:56:24;;;;;;;12.00;1.50;;;;;;;;;;5029857;28;20030;-67
2023/03/18 05:58:51;;;;;;;1.93;1.47;;;;;;;;;;5027520;28;20505;-65
2023/03/18 06:01:19;;;;;;;2.10;1.23;;;;;;;;;;5027372;28;20053;-65
2023/03/18 06:03:45;;;;;;;2.07;1.40;;;;;;;;;;5027197;28;20457;-65
2023/03/18 06:06:12;;;;;;;5.87;2.70;;;;;;;;;;5028766;28;20108;-66
2023/03/18 06:08:40;;;;;;;2.20;1.70;;;;;;;;;;5014987;28;20373;-65
2023/03/18 06:11:06;;;;;;;3.87;2.60;;;;;;;;;;5032560;28;20468;-66
2023/03/18 06:13:33;;;;;;;4.57;1.40;;;;;;;;;;5032182;28;20028;-66
2023/03/18 06:16:00;;;;;;;1.93;1.43;;;;;;;;;;5032535;28;20083;-67
2023/03/18 06:18:27;;;;;;;3.53;2.13;;;;;;;;;;5030575;28;20037;-67
2023/03/18 06:20:55;;;;;;;4.93;2.23;;;;;;;;;;5026183;28;20065;-67
2023/03/18 06:23:21;;;;;;;2.30;1.73;;;;;;;;;;5027134;28;20048;-65
2023/03/18 06:25:49;;;;;;;4.93;2.90;;;;;;;;;;5027139;28;20041;-65
2023/03/18 06:28:15;;;;;;;2.93;1.67;;;;;;;;;;5028049;28;20112;-65
2023/03/18 06:30:42;;;;;;;3.53;2.03;;;;;;;;;;5032037;28;20037;-67
2023/03/18 06:33:09;;;;;;;5.17;1.83;;;;;;;;;;5031970;28;20057;-67
2023/03/18 06:35:36;;;;;;;3.07;2.03;;;;;;;;;;5032067;28;20444;-65
2023/03/18 06:38:02;;;;;;;3.93;2.60;;;;;;;;;;5014388;28;20052;-66
2023/03/18 06:40:29;;;;;;;2.70;1.83;;;;;;;;;;5031228;28;20033;-67
2023/03/18 06:42:56;;;;;;;3.07;1.47;;;;;;;;;;5009215;28;20100;-67
2023/03/18 06:45:24;;;;;;;2.23;1.50;;;;;;;;;;5026754;28;20121;-66
2023/03/18 06:47:51;;;;;;;3.17;1.93;;;;;;;;;;5026654;28;20033;-67
2023/03/18 06:50:19;;;;;;;4.47;2.00;;;;;;;;;;5027126;28;20038;-66
2023/03/18 06:52:46;;;;;;;2.13;1.43;;;;;;;;;;5032065;28;20022;-66
2023/03/18 06:55:13;;;;;;;2.60;1.47;;;;;;;;;;5031735;28;20373;-67
2023/03/18 06:57:40;;;;;;;3.53;1.40;;;;;;;;;;5014516;28;20379;-66
2023/03/18 07:00:07;;;;;;;1.97;1.50;;;;;;;;;;5031670;28;20026;-66
2023/03/18 07:02:35;;;;;;;2.70;2.17;;;;;;;;;;5030529;28;20026;-67
2023/03/18 07:05:03;;;;;;;2.63;1.80;;;;;;;;;;5026546;28;20021;-67
2023/03/18 07:07:30;;;;;;;2.93;2.03;;;;;;;;;;5026763;28;20343;-66
2023/03/18 07:09:56;;;;;;;2.60;1.80;;;;;;;;;;5026733;28;20100;-67
2023/03/18 07:12:23;;;;;;;1.60;1.30;;;;;;;;;;5026501;28;20025;-66
2023/03/18 07:14:52;;;;;;;1.93;1.47;;;;;;;;;;5031402;28;20057;-66
2023/03/18 07:17:19;;;;;;;9.00;1.63;;;;;;;;;;5031673;28;20503;-66
2023/03/18 07:19:45;;;;;;;7.00;2.17;;;;;;;;;;5031679;28;20032;-67
2023/03/18 07:22:12;;;;;;;3.40;1.73;;;;;;;;;;5031801;28;20079;-67
2023/03/18 07:24:39;;;;;;;4.27;1.97;;;;;;;;;;5031875;28;20037;-66
2023/03/18 07:27:05;;;;;;;4.07;2.10;;;;;;;;;;5008297;28;20484;-66
2023/03/18 07:29:32;;;;;;;1.73;1.27;;;;;;;;;;5026272;28;20056;-66
2023/03/18 07:32:00;;;;;;;1.73;1.30;;;;;;;;;;5029337;28;20033;-66
2023/03/18 07:34:27;;;;;;;2.37;1.63;;;;;;;;;;5012189;28;20033;-66
2023/03/18 07:36:54;;;;;;;3.23;1.03;;;;;;;;;;5034380;28;20032;-67
2023/03/18 07:39:22;;;;;;;3.97;2.17;;;;;;;;;;5035183;28;20030;-66
2023/03/18 07:41:48;;;;;;;1.77;1.40;;;;;;;;;;4997845;28;20121;-66
2023/03/18 07:44:15;;;;;;;4.53;2.67;;;;;;;;;;5015540;28;20025;-66
2023/03/18 07:46:42;;;;;;;1.40;1.20;;;;;;;;;;5019399;28;20029;-66
2023/03/18 07:49:08;;;;;;;2.33;1.50;;;;;;;;;;5030253;28;20480;-66
2023/03/18 07:51:35;;;;;;;4.50;2.90;;;;;;;;;;5029301;28;20392;-66
2023/03/18 07:54:03;;;;;;;3.43;2.17;;;;;;;;;;5028994;28;20039;-66
2023/03/18 07:56:30;;;;;;;2.90;2.20;;;;;;;;;;5029009;28;20028;-66
2023/03/18 07:58:57;;;;;;;2.67;1.80;;;;;;;;;;5033702;28;20033;-67
2023/03/18 08:01:24;;;;;;;3.87;1.77;;;;;;;;;;5034920;28;20380;-66
2023/03/18 08:03:51;;;;;;;4.53;2.97;;;;;;;;;;5034516;28;20029;-66
2023/03/18 08:06:18;;;;;;;4.43;3.10;;;;;;;;;;5034988;28;20048;-66
2023/03/18 08:08:45;;;;;;;3.80;1.90;;;;;;;;;;5034805;28;20018;-66
2023/03/18 08:11:13;;;;;;;1.80;1.50;;;;;;;;;;5012649;28;20063;-67
2023/03/18 08:13:40;;;;;;;1.50;1.10;;;;;;;;;;5029407;28;20464;-67
2023/03/18 08:16:07;;;;;;;3.40;1.97;;;;;;;;;;5029508;28;20052;-67
2023/03/18 08:18:34;;;;;;;4.60;2.30;;;;;;;;;;5029545;28;20073;-67
2023/03/18 08:21:00;;;;;;;2.07;1.43;;;;;;;;;;5032709;28;20067;-66
2023/03/18 08:23:28;;;;;;;3.37;2.00;;;;;;;;;;5034354;28;20108;-67
2023/03/18 08:25:54;;;;;;;3.13;2.17;;;;;;;;;;5034508;28;20021;-67
2023/03/18 08:28:21;;;;;;;2.87;1.27;;;;;;;;;;5034232;28;20029;-67
2023/03/18 08:30:48;;;;;;;3.67;2.37;;;;;;;;;;5034251;28;20475;-66
2023/03/18 08:33:14;;;;;;;5.03;1.97;;;;;;;;;;5030830;28;20395;-66
2023/03/18 08:35:41;;;;;;;1.73;1.33;;;;;;;;;;5029198;28;20124;-67
2023/03/18 08:38:08;;;;;;;2.87;2.27;;;;;;;;;;5010723;28;20115;-67
2023/03/18 08:40:35;;;;;;;11.27;2.23;;;;;;;;;;5029159;28;20029;-66
2023/03/18 08:43:02;;;;;;;3.47;1.93;;;;;;;;;;5031239;28;20017;-67
2023/03/18 08:45:28;;;;;;;3.77;2.03;;;;;;;;;;5034044;28;20018;-67
2023/03/18 08:47:55;;;;;;;2.70;1.77;;;;;;;;;;5016168;28;20025;-66
2023/03/18 08:50:27;;;;;;;2.83;2.33;;;;;;;;;;5034205;28;20446;-67
2023/03/18 08:52:56;;;;;;;4.43;2.53;;;;;;;;;;5033748;28;20036;-67
2023/03/18 08:55:23;;;;;;;2.07;1.63;;;;;;;;;;5030578;28;20036;-66
2023/03/18 08:57:50;;;;;;;2.43;1.80;;;;;;;;;;5011030;28;20395;-67
2023/03/18 09:00:17;;;;;;;1.93;1.50;;;;;;;;;;5028380;28;20025;-67
2023/03/18 09:02:44;;;;;;;2.23;1.70;;;;;;;;;;5028227;28;20103;-66
2023/03/18 09:05:10;;;;;;;2.43;1.30;;;;;;;;;;5031003;28;20044;-66
2023/03/18 09:07:37;;;;;;;1.17;1.03;;;;;;;;;;5033239;28;20056;-65
2023/03/18 09:10:04;;;;;;;2.07;1.63;;;;;;;;;;5033739;28;20499;-66
2023/03/18 09:12:31;;;;;;;3.40;2.03;;;;;;;;;;5033646;28;20025;-68
2023/03/18 09:14:58;;;;;;;4.70;2.93;;;;;;;;;;5033463;28;20085;-68
2023/03/18 09:17:25;;;;;;;4.77;2.60;;;;;;;;;;5030749;28;20025;-68
2023/03/18 09:19:51;;;;;;;2.93;1.53;;;;;;;;;;5027711;28;20025;-64
2023/03/18 09:22:18;;;;;;;3.90;2.20;;;;;;;;;;5028335;28;20473;-67
2023/03/18 09:24:45;;;;;;;3.97;2.13;;;;;;;;;;5028348;28;20052;-67
2023/03/18 09:27:12;;;;;;;3.27;2.47;;;;;;;;;;5030257;28;20060;-67
2023/03/18 09:29:38;;;;;;;3.87;2.10;;;;;;;;;;5033089;28;20022;-67
2023/03/18 09:32:05;;;;;;;4.10;2.40;;;;;;;;;;5033307;28;20053;-67
2023/03/18 09:34:32;;;;;;;3.27;2.23;;;;;;;;;;5032423;28;20022;-65
2023/03/18 09:36:59;;;;;;;2.20;1.80;;;;;;;;;;5032601;28;20029;-67
2023/03/18 09:39:26;;;;;;;3.53;1.83;;;;;;;;;;5030927;28;20026;-67
2023/03/18 09:41:52;;;;;;;1.93;1.43;;;;;;;;;;5027798;28;20026;-66
2023/03/18 09:44:28;;;;;;;3.10;2.07;;;;;;;;;;5027548;28;20052;-67
2023/03/18 09:46:58;;;;;;;4.47;2.37;;;;;;;;;;5007947;28;20026;-67
2023/03/18 09:49:34;;;;;;;4.90;1.53;;;;;;;;;;5009915;28;20040;-65
2023/03/18 09:52:21;;;;;;;11.30;3.13;;;;;;;;;;5013077;28;20354;-65
2023/03/18 09:54:57;;;;;;;4.63;3.03;;;;;;;;;;5012132;28;20041;-67
2023/03/18 09:57:26;;;;;;;3.77;2.17;;;;;;;;;;5005215;28;20179;-66
2023/03/18 09:59:58;;;;;;;3.83;1.70;;;;;;;;;;5032800;28;20017;-65
2023/03/18 10:02:31;;;;;;;7.30;2.37;;;;;;;;;;5029146;28;20410;-66
2023/03/18 10:05:02;;;;;;;2.57;2.07;;;;;;;;;;5027260;28;20029;-65
2023/03/18 10:07:31;;;;;;;5.90;2.30;;;;;;;;;;5027595;28;20029;-67
2023/03/18 10:10:01;;;;;;;3.53;2.43;;;;;;;;;;5027500;28;20026;-68
2023/03/18 10:12:35;;;;;;;2.77;1.80;;;;;;;;;;5011091;28;20029;-67
2023/03/18 10:15:11;;;;;;;3.10;1.98;;;;;;;;;;5012982;28;20025;-67
2023/03/18 10:17:40;;;;;;;2.40;1.57;;;;;;;;;;5012886;28;20037;-67
2023/03/18 10:20:15;;;;;;;7.67;2.13;;;;;;;;;;5012940;28;20105;-67
2023/03/18 10:22:47;;;;;;;4.30;2.37;;;;;;;;;;5012377;28;20527;-67
2023/03/18 10:25:14;;;;;;;2.43;1.60;;;;;;;;;;5018829;28;20034;-67
2023/03/18 10:28:02;;;;;;;2.20;1.73;;;;;;;;;;5027491;28;20037;-67
2023/03/18 10:30:35;;;;;;;2.70;1.47;;;;;;;;;;5009247;28;20037;-67
2023/03/18 10:33:24;;;;;;;4.00;1.70;;;;;;;;;;5027049;28;20018;-67
2023/03/18 10:35:56;;;;;;;2.80;2.00;;;;;;;;;;5032173;28;20071;-66
2023/03/18 10:38:30;;;;;;;2.73;1.80;;;;;;;;;;5031759;28;20068;-67
2023/03/18 10:40:56;;;;;;;2.67;1.97;;;;;;;;;;5031826;28;20029;-67
2023/03/18 10:43:25;;;;;;;2.70;2.13;;;;;;;;;;5032255;28;20026;-67
2023/03/18 10:46:12;;;;;;;3.60;2.70;;;;;;;;;;5030568;28;20602;-67
2023/03/18 10:48:41;;;;;;;2.33;1.77;;;;;;;;;;5026632;28;20033;-67
2023/03/18 10:51:21;;;;;;;5.70;2.70;;;;;;;;;;5026747;28;20034;-67
2023/03/18 10:53:48;;;;;;;3.33;2.27;;;;;;;;;;5026984;28;20029;-67
2023/03/18 10:56:15;;;;;;;10.30;2.63;;;;;;;;;;5028628;28;20061;-67
2023/03/18 10:58:42;;;;;;;2.80;2.30;;;;;;;;;;5031803;28;20036;-66
2023/03/18 11:01:11;;;;;;;2.33;1.60;;;;;;;;;;5032182;28;20059;-67
2023/03/18 11:03:54;;;;;;;4.27;2.50;;;;;;;;;;5032035;28;20029;-67
2023/03/18 11:06:30;;;;;;;2.90;2.23;;;;;;;;;;5033944;28;20535;-66
2023/03/18 11:09:07;;;;;;;2.40;1.80;;;;;;;;;;5032650;28;20100;-66
2023/03/18 11:11:34;;;;;;;3.00;2.20;;;;;;;;;;5030939;28;20026;-67
2023/03/18 11:14:05;;;;;;;1.70;1.17;;;;;;;;;;5030167;28;20037;-67
2023/03/18 11:16:38;;;;;;;9.33;2.33;;;;;;;;;;5030523;28;20033;-67
2023/03/18 11:19:24;;;;;;;2.37;1.97;;;;;;;;;;5033526;28;20034;-67
2023/03/18 11:22:00;;;;;;;4.97;2.40;;;;;;;;;;5018041;28;20097;-66
2023/03/18 11:24:43;;;;;;;1.87;1.60;;;;;;;;;;5035665;28;20080;-66
2023/03/18 11:27:16;;;;;;;3.13;2.20;;;;;;;;;;5015990;28;20081;-66
2023/03/18 11:29:44;;;;;;;2.80;2.13;;;;;;;;;;5015742;28;20026;-66
2023/03/18 11:32:26;;;;;;;2.63;2.07;;;;;;;;;;5010512;28;20053;-67
2023/03/18 11:35:19;;;;;;;2.30;1.77;;;;;;;;;;5010693;28;20029;-66
2023/03/18 11:37:46;;;;;;;5.37;2.57;;;;;;;;;;5017175;28;20504;-66
2023/03/18 11:40:13;;;;;;;2.80;1.93;;;;;;;;;;5030615;28;20397;-67
2023/03/18 11:42:40;;;;;;;4.67;2.80;;;;;;;;;;5035295;28;20069;-66
2023/03/18 11:45:28;;;;;;;2.23;1.63;;;;;;;;;;5035397;28;20024;-66
2023/03/18 11:47:56;;;;;;;4.43;2.03;;;;;;;;;;5021807;28;20044;-67
2023/03/18 11:50:29;;;;;;;3.40;2.30;;;;;;;;;;5035299;28;20032;-66
2023/03/18 11:53:24;;;;;;;3.43;2.00;;;;;;;;;;5032924;28;20037;-66
2023/03/18 11:56:09;;;;;;;4.97;2.47;;;;;;;;;;5029896;28;20033;-66
2023/03/18 11:58:46;;;;;;;1.98;1.77;;;;;;;;;;5029771;28;20696;-67
2023/03/18 12:01:22;;;;;;;2.77;2.10;;;;;;;;;;5029968;28;20573;-66
2023/03/18 12:03:49;;;;;;;2.93;2.27;;;;;;;;;;5033285;28;20060;-66
2023/03/18 12:06:16;;;;;;;4.70;2.13;;;;;;;;;;5016824;28;20072;-66
2023/03/18 12:08:43;;;;;;;2.87;1.33;;;;;;;;;;5034465;28;20017;-67
2023/03/18 12:11:25;;;;;;;3.53;2.40;;;;;;;;;;5034866;28;20021;-66
2023/03/18 12:13:58;;;;;;;1.83;1.57;;;;;;;;;;5016942;28;20033;-66
2023/03/18 12:16:25;;;;;;;3.20;2.20;;;;;;;;;;5030023;28;20259;-65
2023/03/18 12:19:01;;;;;;;1.97;1.37;;;;;;;;;;5028407;28;20501;-66
2023/03/18 12:21:47;;;;;;;2.30;2.00;;;;;;;;;;5029289;28;20294;-66
2023/03/18 12:24:32;;;;;;;3.17;2.40;;;;;;;;;;5029434;28;20286;-67
2023/03/18 12:27:17;;;;;;;2.42;1.63;;;;;;;;;;5034243;28;20571;-67
2023/03/18 12:29:59;;;;;;;3.03;2.50;;;;;;;;;;5034642;28;20021;-66
2023/03/18 12:32:30;;;;;;;5.37;3.30;;;;;;;;;;5034419;28;20028;-66
2023/03/18 12:35:02;;;;;;;4.53;2.90;;;;;;;;;;5033724;28;20021;-66
2023/03/18 12:37:39;;;;;;;5.90;3.23;;;;;;;;;;5031971;28;20733;-66
2023/03/18 12:40:06;;;;;;;4.80;3.37;;;;;;;;;;5029116;28;20749;-66
2023/03/18 12:43:08;;;;;;;4.50;3.50;;;;;;;;;;5029061;28;20254;-66
2023/03/18 12:45:41;;;;;;;3.93;2.87;;;;;;;;;;4948522;29;20308;-66
2023/03/18 12:48:16;;;;;;;5.97;3.63;;;;;;;;;;5019055;28;20769;-66
2023/03/18 12:50:47;;;;;;;4.82;3.50;;;;;;;;;;5034219;28;20251;-66
2023/03/18 12:53:25;;;;;;;7.17;4.33;;;;;;;;;;5033673;28;20071;-66
2023/03/18 12:55:55;;;;;;;3.67;2.90;;;;;;;;;;5033751;28;20270;-66
2023/03/18 12:58:26;;;;;;;4.97;3.70;;;;;;;;;;5033966;28;20291;-66
2023/03/18 13:01:06;;;;;;;13.53;3.83;;;;;;;;;;5029312;28;20802;-66
2023/03/18 13:03:34;;;;;;;6.97;4.20;;;;;;;;;;5008966;28;20690;-66
2023/03/18 13:06:04;;;;;;;6.80;4.60;;;;;;;;;;5008808;28;20298;-66
2023/03/18 13:08:30;;;;;;;3.87;2.87;;;;;;;;;;5008694;28;20773;-66
2023/03/18 13:11:08;;;;;;;2.60;2.23;;;;;;;;;;4995604;28;20835;-66
2023/03/18 13:13:37;;;;;;;4.60;3.17;;;;;;;;;;5028930;28;20273;-66
2023/03/18 13:16:04;;;;;;;2.67;1.87;;;;;;;;;;5033573;28;20259;-66
2023/03/18 13:18:42;;;;;;;7.30;2.87;;;;;;;;;;5033477;28;20384;-66
2023/03/18 13:21:13;;;;;;;2.73;2.23;;;;;;;;;;5015375;28;20263;-66
2023/03/18 13:23:55;;;;;;;2.83;2.20;;;;;;;;;;5028190;28;20299;-66
2023/03/18 13:26:22;;;;;;;2.77;2.33;;;;;;;;;;5020230;28;20620;-66
2023/03/18 13:28:56;;;;;;;7.20;3.83;;;;;;;;;;5009767;28;20056;-66
2023/03/18 13:31:45;;;;;;;5.77;3.37;;;;;;;;;;5028364;28;20033;-66
2023/03/18 13:34:12;;;;;;;6.43;4.43;;;;;;;;;;5032609;28;20613;-66
2023/03/18 13:36:51;;;;;;;4.73;3.70;;;;;;;;;;5033168;28;20021;-66
2023/03/18 13:39:17;;;;;;;4.63;3.03;;;;;;;;;;5033202;28;20112;-67
2023/03/18 13:42:02;;;;;;;5.10;2.93;;;;;;;;;;5032820;28;20033;-67
2023/03/18 13:44:45;;;;;;;3.97;2.78;;;;;;;;;;5029952;28;20026;-66
2023/03/18 13:47:17;;;;;;;4.73;3.50;;;;;;;;;;5027718;28;20027;-67
2023/03/18 13:49:44;;;;;;;4.60;3.00;;;;;;;;;;5027506;28;20025;-67
2023/03/18 13:52:25;;;;;;;3.10;2.63;;;;;;;;;;5027269;28;20071;-67
2023/03/18 13:54:52;;;;;;;5.70;3.63;;;;;;;;;;5019242;28;20357;-67
2023/03/18 13:57:22;;;;;;;3.93;2.60;;;;;;;;;;5032668;28;20240;-65
2023/03/18 13:59:49;;;;;;;6.13;3.47;;;;;;;;;;5032783;28;20087;-67
2023/03/18 14:02:31;;;;;;;5.27;3.87;;;;;;;;;;5015004;28;20613;-65
2023/03/18 14:04:58;;;;;;;7.53;2.93;;;;;;;;;;5031696;28;20021;-65
2023/03/18 14:07:26;;;;;;;5.13;3.13;;;;;;;;;;5028414;28;20022;-66
2023/03/18 14:10:05;;;;;;;19.57;3.90;;;;;;;;;;5027567;28;20025;-67
2023/03/18 14:12:32;;;;;;;3.67;2.77;;;;;;;;;;5027449;28;20480;-66
2023/03/18 14:15:08;;;;;;;6.93;5.10;;;;;;;;;;5027535;28;20022;-65
2023/03/18 14:17:37;;;;;;;8.13;5.30;;;;;;;;;;5031428;28;20064;-67
2023/03/18 14:20:22;;;;;;;7.80;5.03;;;;;;;;;;5032043;28;20040;-67
2023/03/18 14:22:53;;;;;;;9.80;5.93;;;;;;;;;;5032010;28;20028;-66
2023/03/18 14:25:23;;;;;;;6.20;4.27;;;;;;;;;;5032447;28;20029;-66
2023/03/18 14:27:54;;;;;;;11.17;4.70;;;;;;;;;;5014575;28;20025;-65
2023/03/18 14:30:33;;;;;;;7.73;5.50;;;;;;;;;;5026929;28;20380;-66
2023/03/18 14:33:04;;;;;;;16.33;5.27;;;;;;;;;;5007397;28;20029;-66
2023/03/18 14:35:35;;;;;;;9.03;5.17;;;;;;;;;;5007499;28;20068;-66
2023/03/18 14:38:04;;;;;;;5.07;3.90;;;;;;;;;;5018572;28;20032;-66
2023/03/18 14:40:35;;;;;;;7.97;5.17;;;;;;;;;;5031770;28;20068;-65
2023/03/18 14:43:06;;;;;;;4.57;3.70;;;;;;;;;;5032264;28;20056;-67
2023/03/18 14:45:35;;;;;;;8.53;5.00;;;;;;;;;;5032161;28;20030;-66
2023/03/18 14:48:21;;;;;;;6.10;4.27;;;;;;;;;;5032160;28;20108;-65
2023/03/18 14:50:52;;;;;;;9.00;4.83;;;;;;;;;;4999114;28;20046;-67
2023/03/18 14:53:21;;;;;;;12.87;4.03;;;;;;;;;;5027138;28;20053;-67
2023/03/18 14:55:48;;;;;;;5.10;3.53;;;;;;;;;;5026714;28;20437;-66
2023/03/18 14:58:18;;;;;;;4.60;3.33;;;;;;;;;;5026990;28;20041;-66